createdAt,value
2019-04-14T00:01:02.170Z,27.30
2019-04-14T00:03:50.090Z,24.63
2019-04-14T00:06:22.401Z,25.93
2019-04-14T00:08:52.304Z,26.20
2019-04-14T00:11:23.322Z,22.05
2019-04-14T00:13:54.457Z,21.67
2019-04-14T00:16:24.883Z,21.23
2019-04-14T00:18:55.538Z,25.07
2019-04-14T00:21:26.083Z,29.10
2019-04-14T00:23:56.634Z,22.97
2019-04-14T00:26:29.312Z,22.73
2019-04-14T00:28:59.936Z,21.77
2019-04-14T00:31:30.565Z,24.63
2019-04-14T00:34:01.357Z,24.20
2019-04-14T00:36:34.858Z,28.67
2019-04-14T00:39:05.418Z,23.83
2019-04-14T00:41:50.435Z,23.17
2019-04-14T00:44:16.844Z,22.27
2019-04-14T00:46:50.273Z,24.03
2019-04-14T00:49:20.012Z,28.57
2019-04-14T00:51:49.118Z,27.37
2019-04-14T00:54:18.176Z,26.80
2019-04-14T00:56:47.660Z,26.43
2019-04-14T00:59:17.619Z,27.07
2019-04-14T01:01:46.802Z,29.37
2019-04-14T01:04:18.743Z,23.83
2019-04-14T01:06:48.933Z,26.90
2019-04-14T01:09:17.980Z,25.40
2019-04-14T01:11:46.865Z,23.77
2019-04-14T01:14:16.898Z,25.10
2019-04-14T01:16:47.260Z,25.27
2019-04-14T01:19:17.639Z,25.37
2019-04-14T01:21:46.644Z,28.77
2019-04-14T01:24:16.352Z,27.87
2019-04-14T01:26:46.381Z,29.80
2019-04-14T01:29:16.491Z,28.73
2019-04-14T01:31:45.469Z,27.17
2019-04-14T01:34:15.172Z,27.47
2019-04-14T01:36:45.319Z,26.30
2019-04-14T01:39:15.456Z,26.85
2019-04-14T01:41:45.561Z,24.00
2019-04-14T01:44:15.565Z,24.77
2019-04-14T01:46:45.603Z,27.10
2019-04-14T01:49:15.698Z,23.67
2019-04-14T01:51:59.216Z,24.30
2019-04-14T01:54:40.935Z,27.05
2019-04-14T01:57:26.302Z,25.80
2019-04-14T01:59:55.295Z,25.63
2019-04-14T02:02:26.910Z,25.47
2019-04-14T02:04:56.045Z,23.10
2019-04-14T02:07:25.567Z,25.15
2019-04-14T02:09:55.370Z,26.93
2019-04-14T02:12:25.429Z,29.13
2019-04-14T02:14:54.682Z,24.03
2019-04-14T02:17:24.239Z,25.68
2019-04-14T02:19:54.532Z,23.20
2019-04-14T02:22:25.143Z,25.60
2019-04-14T02:24:54.911Z,24.77
2019-04-14T02:27:23.850Z,25.68
2019-04-14T02:29:53.839Z,32.10
2019-04-14T02:32:49.526Z,25.45
2019-04-14T02:35:20.937Z,26.40
2019-04-14T02:37:55.935Z,27.22
2019-04-14T02:40:27.303Z,26.77
2019-04-14T02:43:09.804Z,27.95
2019-04-14T02:45:31.725Z,29.63
2019-04-14T02:55:21.310Z,30.73
2019-04-14T02:57:52.835Z,25.33
2019-04-14T03:00:31.811Z,30.90
2019-04-14T03:02:59.295Z,27.33
2019-04-14T03:05:27.154Z,29.30
2019-04-14T03:07:59.973Z,28.07
2019-04-14T03:10:31.876Z,31.77
2019-04-14T03:13:09.309Z,24.07
2019-04-14T03:20:55.287Z,25.90
2019-04-14T03:23:36.565Z,23.37
2019-04-14T03:25:59.235Z,24.13
2019-04-14T03:38:36.499Z,17.90
2019-04-14T03:51:28.355Z,15.87
2019-04-14T03:53:32.078Z,14.83
2019-04-14T03:55:58.400Z,15.50
2019-04-14T03:58:22.642Z,15.63
2019-04-14T04:00:51.618Z,20.53
2019-04-14T04:03:21.681Z,15.28
2019-04-14T04:05:52.073Z,17.83
2019-04-14T04:08:22.259Z,14.40
2019-04-14T04:11:02.030Z,19.87
2019-04-14T04:13:32.273Z,20.43
2019-04-14T04:16:11.864Z,16.97
2019-04-14T04:18:50.890Z,15.60
2019-04-14T04:21:18.316Z,16.87
2019-04-14T04:23:55.432Z,16.27
2019-04-14T04:26:26.015Z,15.00
2019-04-14T04:29:13.609Z,13.80
2019-04-14T04:31:44.073Z,13.43
2019-04-14T04:34:16.175Z,18.77
2019-04-14T04:36:46.767Z,14.07
2019-04-14T04:39:17.196Z,17.77
2019-04-14T04:41:47.170Z,14.63
2019-04-14T04:44:16.208Z,13.70
2019-04-14T04:46:45.978Z,14.07
2019-04-14T04:49:20.903Z,14.55
2019-04-14T04:51:46.524Z,14.73
2019-04-14T04:54:16.743Z,14.00
2019-04-14T04:56:45.888Z,14.67
2019-04-14T04:59:14.959Z,17.80
2019-04-14T05:01:45.078Z,16.10
2019-04-14T05:04:15.328Z,13.80
2019-04-14T05:07:07.796Z,14.70
2019-04-14T05:09:40.509Z,15.27
2019-04-14T05:12:17.488Z,15.60
2019-04-14T05:14:54.486Z,14.23
2019-04-14T05:17:25.539Z,16.00
2019-04-14T05:19:54.547Z,12.97
2019-04-14T05:22:24.622Z,15.25
2019-04-14T05:24:54.954Z,14.10
2019-04-14T05:27:23.882Z,13.87
2019-04-14T05:29:53.638Z,14.50
2019-04-14T05:32:22.586Z,15.83
2019-04-14T05:34:52.186Z,15.73
2019-04-14T05:37:21.087Z,14.73
2019-04-14T05:39:50.502Z,17.13
2019-04-14T05:42:23.826Z,16.37
2019-04-14T05:44:50.114Z,13.83
2019-04-14T05:47:19.747Z,13.65
2019-04-14T05:49:52.705Z,14.90
2019-04-14T05:52:20.568Z,14.13
2019-04-14T05:54:49.570Z,14.83
2019-04-14T05:57:18.459Z,15.00
2019-04-14T05:59:48.396Z,13.93
2019-04-14T06:02:18.065Z,14.70
2019-04-14T06:04:48.186Z,14.87
2019-04-14T06:07:17.209Z,13.35
2019-04-14T06:09:46.091Z,15.70
2019-04-14T06:12:15.085Z,13.43
2019-04-14T06:14:44.078Z,14.17
2019-04-14T06:17:12.970Z,14.10
2019-04-14T06:19:41.860Z,18.37
2019-04-14T06:22:11.782Z,21.48
2019-04-14T06:24:40.667Z,18.87
2019-04-14T06:27:10.583Z,13.45
2019-04-14T06:29:39.478Z,16.97
2019-04-14T06:32:16.866Z,16.65
2019-04-14T06:34:47.291Z,18.00
2019-04-14T06:37:20.486Z,17.73
2019-04-14T06:39:53.778Z,15.53
2019-04-14T06:42:22.667Z,14.38
2019-04-14T06:44:51.560Z,15.10
2019-04-14T06:47:20.461Z,12.98
2019-04-14T06:49:49.572Z,14.13
2019-04-14T06:52:18.745Z,16.47
2019-04-14T06:54:47.992Z,13.60
2019-04-14T06:57:16.833Z,14.55
2019-04-14T06:59:45.730Z,14.43
2019-04-14T07:02:14.806Z,12.87
2019-04-14T07:04:45.251Z,15.07
2019-04-14T07:07:14.140Z,13.80
2019-04-14T07:09:43.036Z,13.50
2019-04-14T07:12:12.849Z,13.03
2019-04-14T07:14:41.939Z,16.30
2019-04-14T07:17:11.551Z,15.07
2019-04-14T07:19:40.541Z,13.90
2019-04-14T07:22:10.061Z,14.68
2019-04-14T07:24:39.042Z,14.47
2019-04-14T07:27:09.059Z,13.65
2019-04-14T07:29:45.222Z,13.70
2019-04-14T07:32:15.595Z,13.47
2019-04-14T07:35:02.561Z,12.90
2019-04-14T07:37:32.998Z,14.50
2019-04-14T07:40:03.419Z,12.23
2019-04-14T07:42:48.897Z,15.53
2019-04-14T07:45:35.611Z,12.63
2019-04-14T07:48:06.135Z,13.77
2019-04-14T07:50:36.564Z,14.63
2019-04-14T07:53:12.988Z,13.10
2019-04-14T07:55:46.325Z,14.78
2019-04-14T07:58:17.370Z,15.98
2019-04-14T08:00:47.800Z,12.73
2019-04-14T08:03:24.274Z,13.70
2019-04-14T08:05:53.153Z,13.07
2019-04-14T08:08:22.047Z,13.67
2019-04-14T08:10:50.942Z,14.90
2019-04-14T08:13:19.828Z,14.28
2019-04-14T08:15:48.926Z,13.98
2019-04-14T08:18:17.918Z,17.33
2019-04-14T08:20:46.807Z,13.80
2019-04-14T08:23:15.932Z,16.57
2019-04-14T08:25:44.897Z,14.87
2019-04-14T08:28:14.402Z,12.90
2019-04-14T08:30:43.407Z,14.47
2019-04-14T08:33:12.287Z,15.00
2019-04-14T08:35:41.178Z,14.50
2019-04-14T08:38:11.029Z,15.38
2019-04-14T08:40:40.097Z,14.00
2019-04-14T08:43:27.436Z,13.98
2019-04-14T08:45:57.842Z,15.13
2019-04-14T08:48:28.269Z,17.43
2019-04-14T08:50:58.693Z,16.67
2019-04-14T08:53:32.090Z,14.37
2019-04-14T08:56:02.722Z,14.17
2019-04-14T08:58:36.139Z,17.00
2019-04-14T09:01:06.617Z,15.08
2019-04-14T09:03:45.888Z,14.57
2019-04-14T09:06:16.431Z,15.23
2019-04-14T09:08:56.056Z,14.27
2019-04-14T09:11:26.484Z,15.58
2019-04-14T09:13:55.288Z,14.47
2019-04-14T09:16:24.161Z,18.43
2019-04-14T09:18:53.790Z,16.20
2019-04-14T09:21:22.763Z,16.80
2019-04-14T09:23:51.655Z,17.33
2019-04-14T09:26:20.650Z,14.53
2019-04-14T09:28:49.543Z,17.20
2019-04-14T09:31:18.434Z,16.30
2019-04-14T09:33:47.333Z,17.80
2019-04-14T09:36:16.215Z,16.37
2019-04-14T09:38:45.109Z,17.60
2019-04-14T09:41:14.003Z,15.03
2019-04-14T09:43:42.886Z,19.50
2019-04-14T09:46:12.598Z,16.82
2019-04-14T09:48:43.172Z,16.53
2019-04-14T09:51:12.739Z,17.43
2019-04-14T09:53:41.629Z,17.47
2019-04-14T09:56:10.824Z,18.40
2019-04-14T09:58:39.722Z,17.57
2019-04-14T10:01:09.610Z,14.43
2019-04-14T10:03:38.423Z,14.70
2019-04-14T10:06:08.538Z,17.52
2019-04-14T10:08:38.047Z,15.50
2019-04-14T10:11:06.939Z,22.50
2019-04-14T10:13:35.828Z,19.23
2019-04-14T10:16:04.823Z,17.77
2019-04-14T10:18:33.714Z,18.03
2019-04-14T10:21:02.605Z,16.77
2019-04-14T10:23:31.495Z,22.13
2019-04-14T10:26:00.390Z,18.20
2019-04-14T10:28:29.279Z,18.27
2019-04-14T10:30:58.170Z,18.70
2019-04-14T10:33:27.061Z,17.43
2019-04-14T10:35:56.055Z,20.17
2019-04-14T10:38:24.950Z,18.77
2019-04-14T10:40:53.839Z,18.67
2019-04-14T10:43:22.755Z,18.97
2019-04-14T10:45:51.620Z,16.90
2019-04-14T10:48:20.612Z,17.00
2019-04-14T10:50:49.508Z,17.77
2019-04-14T10:53:18.499Z,18.03
2019-04-14T10:55:47.396Z,20.63
2019-04-14T10:58:16.383Z,16.37
2019-04-14T11:00:45.274Z,20.53
2019-04-14T11:03:14.165Z,17.57
2019-04-14T11:05:53.706Z,19.10
2019-04-14T11:08:22.501Z,20.23
2019-04-14T11:10:52.922Z,18.77
2019-04-14T11:13:21.812Z,20.10
2019-04-14T11:15:50.702Z,20.03
2019-04-14T11:18:19.701Z,20.10
2019-04-14T11:20:48.589Z,17.87
2019-04-14T11:23:17.479Z,17.07
2019-04-14T11:25:46.372Z,21.60
2019-04-14T11:28:15.263Z,19.00
2019-04-14T11:30:44.152Z,18.33
2019-04-14T11:33:14.885Z,18.65
2019-04-14T11:35:46.544Z,18.50
2019-04-14T11:38:16.918Z,26.70
2019-04-14T11:40:47.398Z,18.17
2019-04-14T11:43:16.393Z,19.47
2019-04-14T11:45:45.282Z,17.77
2019-04-14T11:48:14.277Z,17.13
2019-04-14T11:50:43.271Z,19.43
2019-04-14T11:53:13.080Z,16.90
2019-04-14T11:55:43.326Z,18.47
2019-04-14T11:58:12.404Z,17.80
2019-04-14T12:00:55.018Z,17.83
2019-04-14T12:03:25.442Z,16.53
2019-04-14T12:05:58.947Z,19.00
2019-04-14T12:08:32.444Z,15.30
2019-04-14T12:11:01.330Z,15.73
2019-04-14T12:13:30.224Z,16.77
2019-04-14T12:15:59.113Z,15.70
2019-04-14T12:18:28.008Z,15.00
2019-04-14T12:20:56.898Z,17.33
2019-04-14T12:23:25.797Z,14.87
2019-04-14T12:26:04.725Z,16.20
2019-04-14T12:28:26.261Z,15.65
2019-04-14T12:30:55.591Z,17.60
2019-04-14T12:33:24.424Z,15.98
2019-04-14T12:35:53.722Z,16.37
2019-04-14T12:38:22.972Z,16.67
2019-04-14T12:40:52.443Z,14.00
2019-04-14T12:43:26.044Z,14.65
2019-04-14T12:46:13.158Z,16.37
2019-04-14T12:48:49.821Z,15.90
2019-04-14T12:51:26.413Z,15.48
2019-04-14T12:53:55.286Z,15.33
2019-04-14T12:56:25.712Z,15.80
2019-04-14T12:59:02.186Z,14.90
2019-04-14T13:01:48.886Z,14.53
2019-04-14T13:04:17.779Z,15.50
2019-04-14T13:06:46.673Z,16.67
2019-04-14T13:09:15.577Z,12.90
2019-04-14T13:11:44.453Z,13.27
2019-04-14T13:14:13.345Z,14.73
2019-04-14T13:16:42.396Z,18.07
2019-04-14T13:19:11.437Z,16.23
2019-04-14T13:21:40.566Z,12.80
2019-04-14T13:24:09.932Z,11.97
2019-04-14T13:26:38.928Z,12.90
2019-04-14T13:29:08.978Z,11.68
2019-04-14T13:31:37.848Z,13.88
2019-04-14T13:34:06.727Z,15.60
2019-04-14T13:36:35.625Z,19.20
2019-04-14T13:39:06.269Z,15.57
2019-04-14T13:41:35.965Z,15.37
2019-04-14T13:44:05.227Z,13.70
2019-04-14T13:46:34.160Z,13.80
2019-04-14T13:49:03.044Z,15.97
2019-04-14T13:51:31.934Z,14.53
2019-04-14T13:54:00.733Z,12.97
2019-04-14T13:56:29.610Z,12.70
2019-04-14T13:58:58.443Z,12.25
2019-04-14T14:01:27.241Z,13.85
2019-04-14T14:03:58.909Z,12.97
2019-04-14T14:06:27.750Z,12.67
2019-04-14T14:08:56.632Z,12.23
2019-04-14T14:11:43.547Z,12.33
2019-04-14T14:14:15.523Z,14.00
2019-04-14T14:17:02.320Z,13.47
2019-04-14T14:19:44.523Z,12.33
2019-04-14T14:22:14.951Z,12.82
2019-04-14T14:24:45.379Z,13.20
2019-04-14T14:27:14.371Z,11.17
2019-04-14T14:29:43.265Z,11.80
2019-04-14T14:32:19.632Z,16.03
2019-04-14T14:34:48.526Z,12.10
2019-04-14T14:37:17.516Z,12.03
2019-04-14T14:39:46.509Z,11.37
2019-04-14T14:42:15.403Z,12.83
2019-04-14T14:44:45.827Z,11.43
2019-04-14T14:47:16.256Z,13.22
2019-04-14T14:49:49.445Z,10.70
2019-04-14T14:52:19.872Z,9.30
2019-04-14T14:54:48.765Z,9.57
2019-04-14T14:57:17.760Z,14.03
2019-04-14T14:59:46.649Z,11.00
2019-04-14T15:02:15.643Z,11.00
2019-04-14T15:04:44.534Z,12.67
2019-04-14T15:07:13.425Z,9.55
2019-04-14T15:09:42.317Z,11.37
2019-04-14T15:12:13.462Z,8.18
2019-04-14T15:14:42.461Z,10.07
2019-04-14T15:17:11.553Z,9.13
2019-04-14T15:19:40.445Z,11.97
2019-04-14T15:22:10.255Z,10.75
2019-04-14T15:24:39.143Z,10.30
2019-04-14T15:27:09.165Z,11.80
2019-04-14T15:29:38.056Z,10.50
2019-04-14T15:32:06.893Z,11.10
2019-04-14T15:34:35.840Z,11.40
2019-04-14T15:37:04.635Z,11.07
2019-04-14T15:39:33.513Z,11.50
2019-04-14T15:42:02.410Z,12.77
2019-04-14T15:44:31.295Z,11.43
2019-04-14T15:47:00.188Z,10.30
2019-04-14T15:49:30.433Z,12.53
2019-04-14T15:51:59.301Z,9.90
2019-04-14T15:54:28.195Z,10.73
2019-04-14T15:57:04.663Z,14.07
2019-04-14T15:59:38.059Z,13.57
2019-04-14T16:02:11.324Z,11.90
2019-04-14T16:04:44.751Z,12.13
2019-04-14T16:07:31.562Z,14.10
2019-04-14T16:10:02.036Z,12.90
2019-04-14T16:12:47.777Z,12.73
2019-04-14T16:15:34.389Z,12.25
2019-04-14T16:18:16.892Z,13.13
2019-04-14T16:20:46.605Z,13.37
2019-04-14T16:23:15.607Z,13.63
2019-04-14T16:25:52.064Z,10.60
2019-04-14T16:28:22.493Z,10.77
2019-04-14T16:31:09.008Z,11.73
2019-04-14T16:33:39.533Z,15.90
2019-04-14T16:36:09.379Z,13.25
2019-04-14T16:38:38.233Z,13.30
2019-04-14T16:41:07.122Z,12.87
2019-04-14T16:43:36.012Z,13.87
2019-04-14T16:46:04.908Z,15.37
2019-04-14T16:48:33.804Z,13.57
2019-04-14T16:51:03.408Z,14.33
2019-04-14T16:53:33.931Z,11.70
2019-04-14T16:56:04.469Z,12.80
2019-04-14T16:58:37.863Z,12.10
2019-04-14T17:01:08.516Z,12.40
2019-04-14T17:03:37.315Z,11.83
2019-04-14T17:06:07.605Z,15.30
2019-04-14T17:08:37.112Z,14.43
2019-04-14T17:11:06.293Z,13.90
2019-04-14T17:13:36.682Z,15.13
2019-04-14T17:16:08.203Z,14.87
2019-04-14T17:18:44.354Z,12.87
2019-04-14T17:21:29.828Z,15.00
2019-04-14T17:24:10.641Z,15.07
2019-04-14T17:26:35.552Z,15.13
2019-04-14T17:29:06.034Z,15.77
2019-04-14T17:31:52.428Z,16.20
2019-04-14T17:34:38.937Z,17.37
2019-04-14T17:37:26.358Z,17.77
2019-04-14T17:40:08.770Z,18.20
2019-04-14T17:42:39.195Z,17.70
2019-04-14T17:45:17.247Z,20.77
2019-04-14T17:47:53.464Z,19.77
2019-04-14T17:50:41.295Z,17.67
2019-04-14T17:53:15.824Z,19.80
2019-04-14T17:55:52.316Z,18.43
2019-04-14T17:58:26.002Z,18.40
2019-04-14T18:01:12.302Z,15.90
2019-04-14T18:03:51.835Z,17.57
2019-04-14T18:06:24.339Z,14.73
2019-04-14T18:09:00.573Z,17.20
2019-04-14T18:11:31.003Z,15.70
2019-04-14T18:14:04.645Z,15.70
2019-04-14T18:16:35.237Z,16.13
2019-04-14T18:19:17.949Z,15.67
2019-04-14T18:21:46.843Z,16.80
2019-04-14T18:24:15.643Z,16.90
2019-04-14T18:26:44.523Z,17.10
2019-04-14T18:29:27.348Z,20.47
2019-04-14T18:31:57.769Z,19.13
2019-04-14T18:34:28.235Z,17.27
2019-04-14T18:36:58.723Z,17.17
2019-04-14T18:39:32.323Z,17.40
2019-04-14T18:42:18.736Z,17.90
2019-04-14T18:44:54.888Z,18.57
2019-04-14T18:47:41.257Z,19.85
2019-04-14T18:50:12.503Z,18.80
2019-04-14T18:53:01.397Z,18.67
2019-04-14T18:55:37.760Z,18.70
2019-04-14T18:58:23.451Z,17.90
2019-04-14T19:01:03.195Z,17.83
2019-04-14T19:03:32.188Z,17.03
2019-04-14T19:06:01.179Z,20.57
2019-04-14T19:08:30.071Z,18.23
2019-04-14T19:11:00.703Z,17.13
2019-04-14T19:13:31.136Z,16.37
2019-04-14T19:16:07.499Z,19.43
2019-04-14T19:18:40.738Z,18.23
2019-04-14T19:21:14.293Z,16.83
2019-04-14T19:23:46.198Z,16.67
2019-04-14T19:26:13.816Z,18.87
2019-04-14T19:28:42.707Z,21.33
2019-04-14T19:31:12.003Z,17.87
2019-04-14T19:33:40.899Z,18.17
2019-04-14T19:36:10.710Z,18.42
2019-04-14T19:38:39.602Z,18.92
2019-04-14T19:41:09.517Z,19.25
2019-04-14T19:43:38.407Z,18.67
2019-04-14T19:46:07.400Z,19.57
2019-04-14T19:48:36.397Z,18.87
2019-04-14T19:51:05.389Z,18.53
2019-04-14T19:53:34.403Z,20.53
2019-04-14T19:56:03.272Z,18.83
2019-04-14T19:58:32.164Z,19.00
2019-04-14T20:01:01.055Z,19.23
2019-04-14T20:03:29.944Z,18.30
2019-04-14T20:05:58.839Z,18.87
2019-04-14T20:08:27.833Z,18.53
2019-04-14T20:10:56.824Z,17.73
2019-04-14T20:13:27.560Z,21.05
2019-04-14T20:16:03.925Z,17.87
2019-04-14T20:18:50.940Z,19.67
2019-04-14T20:21:40.314Z,19.07
2019-04-14T20:24:11.353Z,19.55
2019-04-14T20:26:41.783Z,17.83
2019-04-14T20:29:12.620Z,21.30
2019-04-14T20:31:48.893Z,20.10
2019-04-14T20:34:17.775Z,19.70
2019-04-14T20:36:46.667Z,19.77
2019-04-14T20:39:16.069Z,20.33
2019-04-14T20:41:45.067Z,21.00
2019-04-14T20:44:14.265Z,17.93
2019-04-14T20:46:43.154Z,17.27
2019-04-14T20:49:14.006Z,19.50
2019-04-14T20:51:42.990Z,20.13
2019-04-14T20:54:13.004Z,19.27
2019-04-14T20:56:41.895Z,19.23
2019-04-14T20:59:11.601Z,19.80
2019-04-14T21:01:42.028Z,20.87
2019-04-14T21:04:25.678Z,22.22
2019-04-14T21:07:02.142Z,19.77
2019-04-14T21:09:35.173Z,18.73
2019-04-14T21:12:11.778Z,20.17
2019-04-14T21:14:48.572Z,19.57
2019-04-14T21:17:19.112Z,18.03
2019-04-14T21:19:49.531Z,18.77
2019-04-14T21:22:20.016Z,17.73
2019-04-14T21:24:59.501Z,17.57
2019-04-14T21:27:35.844Z,19.23
2019-04-14T21:30:09.136Z,19.30
2019-04-14T21:32:58.123Z,20.87
2019-04-14T21:35:28.599Z,20.57
2019-04-14T21:37:59.294Z,19.23
2019-04-14T21:40:47.835Z,20.63
2019-04-14T21:43:16.890Z,19.40
2019-04-14T21:45:45.922Z,18.37
2019-04-14T21:48:14.941Z,19.70
2019-04-14T21:50:43.806Z,18.60
2019-04-14T21:53:12.799Z,18.47
2019-04-14T21:55:41.690Z,19.20
2019-04-14T21:58:18.287Z,20.53
2019-04-14T22:01:06.507Z,19.30
2019-04-14T22:03:37.071Z,19.73
2019-04-14T22:06:13.272Z,17.43
2019-04-14T22:08:52.535Z,18.07
2019-04-14T22:11:23.176Z,20.50
2019-04-14T22:13:52.162Z,17.57
2019-04-14T22:16:21.052Z,18.02
2019-04-14T22:18:49.945Z,20.33
2019-04-14T22:21:18.834Z,19.92
2019-04-14T22:24:00.370Z,22.17
2019-04-14T22:26:25.912Z,19.30
2019-04-14T22:28:49.090Z,19.13
2019-04-14T22:31:18.091Z,18.80
2019-04-14T22:33:49.435Z,20.57
2019-04-14T22:36:18.329Z,21.73
2019-04-14T22:38:47.217Z,19.67
2019-04-14T22:41:16.112Z,20.13
2019-04-14T22:43:45.001Z,22.03
2019-04-14T22:46:15.531Z,21.60
2019-04-14T22:48:44.572Z,21.07
2019-04-14T22:51:13.413Z,20.53
2019-04-14T22:53:42.307Z,20.67
2019-04-14T22:56:11.913Z,22.63
2019-04-14T22:58:40.805Z,20.83
2019-04-14T23:01:11.744Z,21.57
2019-04-14T23:03:58.656Z,21.90
2019-04-14T23:06:41.372Z,22.23
2019-04-14T23:09:28.182Z,22.20
2019-04-14T23:11:58.612Z,22.93
2019-04-14T23:14:32.008Z,20.80
2019-04-14T23:17:20.458Z,19.37
2019-04-14T23:20:00.206Z,22.40
2019-04-14T23:22:47.015Z,22.98
2019-04-14T23:25:16.006Z,20.93
2019-04-14T23:27:44.899Z,20.77
2019-04-14T23:30:14.719Z,21.65
2019-04-14T23:32:43.603Z,22.50
2019-04-14T23:35:13.212Z,22.17
2019-04-14T23:37:42.101Z,24.47
2019-04-14T23:40:13.383Z,20.80
2019-04-14T23:42:42.240Z,19.33
2019-04-14T23:45:11.643Z,22.83
2019-04-14T23:47:40.535Z,21.60
2019-04-14T23:50:09.925Z,20.07
2019-04-14T23:52:38.929Z,21.67
2019-04-14T23:55:08.538Z,21.23
2019-04-14T23:57:37.431Z,25.17
